sensor_id;sensor_type;location;lat;lon;timestamp;pressure;altitude;pressure_sealevel;temperature;humidity
64632;BME280;58358;50.936;0.246;2022-08-19T00:00:19;100832.89;;;19.20;62.22
64632;BME280;58358;50.936;0.246;2022-08-19T00:02:44;100835.17;;;20.04;60.21
64632;BME280;58358;50.936;0.246;2022-08-19T00:05:10;100831.54;;;18.51;64.88
64632;BME280;58358;50.936;0.246;2022-08-19T00:07:36;100829.78;;;18.21;67.11
64632;BME280;58358;50.936;0.246;2022-08-19T00:10:02;100828.34;;;19.04;64.45
64632;BME280;58358;50.936;0.246;2022-08-19T00:12:27;100829.38;;;18.50;65.39
64632;BME280;58358;50.936;0.246;2022-08-19T00:14:52;100826.13;;;18.37;66.86
64632;BME280;58358;50.936;0.246;2022-08-19T00:17:17;100826.58;;;19.22;63.83
64632;BME280;58358;50.936;0.246;2022-08-19T00:19:43;100825.02;;;19.38;63.59
64632;BME280;58358;50.936;0.246;2022-08-19T00:22:09;100826.45;;;19.77;62.55
64632;BME280;58358;50.936;0.246;2022-08-19T00:24:35;100823.36;;;20.16;62.26
64632;BME280;58358;50.936;0.246;2022-08-19T00:27:00;100817.27;;;20.64;60.14
64632;BME280;58358;50.936;0.246;2022-08-19T00:29:25;100816.95;;;20.73;60.10
64632;BME280;58358;50.936;0.246;2022-08-19T00:31:51;100818.35;;;20.48;60.44
64632;BME280;58358;50.936;0.246;2022-08-19T00:34:16;100822.35;;;20.20;60.46
64632;BME280;58358;50.936;0.246;2022-08-19T00:36:42;100828.90;;;20.19;60.71
64632;BME280;58358;50.936;0.246;2022-08-19T00:39:07;100825.81;;;20.31;59.63
64632;BME280;58358;50.936;0.246;2022-08-19T00:41:33;100828.74;;;20.13;61.16
64632;BME280;58358;50.936;0.246;2022-08-19T00:44:00;100827.66;;;19.61;61.77
64632;BME280;58358;50.936;0.246;2022-08-19T00:46:24;100829.39;;;20.51;59.31
64632;BME280;58358;50.936;0.246;2022-08-19T00:48:49;100830.95;;;20.42;60.37
64632;BME280;58358;50.936;0.246;2022-08-19T00:51:15;100828.40;;;19.67;61.73
64632;BME280;58358;50.936;0.246;2022-08-19T00:53:41;100827.13;;;20.26;60.51
64632;BME280;58358;50.936;0.246;2022-08-19T00:56:06;100824.79;;;20.35;59.57
64632;BME280;58358;50.936;0.246;2022-08-19T00:58:34;100826.28;;;21.06;58.01
64632;BME280;58358;50.936;0.246;2022-08-19T01:00:57;100829.25;;;20.98;58.02
64632;BME280;58358;50.936;0.246;2022-08-19T01:03:24;100827.91;;;19.47;61.82
64632;BME280;58358;50.936;0.246;2022-08-19T01:05:51;100825.77;;;20.36;60.37
64632;BME280;58358;50.936;0.246;2022-08-19T01:08:16;100828.36;;;19.60;61.31
64632;BME280;58358;50.936;0.246;2022-08-19T01:10:43;100823.18;;;21.67;57.03
64632;BME280;58358;50.936;0.246;2022-08-19T01:13:06;100824.99;;;20.28;59.09
64632;BME280;58358;50.936;0.246;2022-08-19T01:15:34;100821.06;;;21.59;57.26
64632;BME280;58358;50.936;0.246;2022-08-19T01:18:02;100818.41;;;21.40;57.29
64632;BME280;58358;50.936;0.246;2022-08-19T01:20:23;100821.55;;;20.69;58.51
64632;BME280;58358;50.936;0.246;2022-08-19T01:22:51;100819.05;;;21.17;57.77
64632;BME280;58358;50.936;0.246;2022-08-19T01:25:15;100824.27;;;20.51;58.44
64632;BME280;58358;50.936;0.246;2022-08-19T01:27:41;100824.97;;;20.64;58.95
64632;BME280;58358;50.936;0.246;2022-08-19T01:30:07;100829.09;;;20.25;59.63
64632;BME280;58358;50.936;0.246;2022-08-19T01:32:30;100818.63;;;21.21;58.31
64632;BME280;58358;50.936;0.246;2022-08-19T01:34:56;100815.90;;;21.42;57.69
64632;BME280;58358;50.936;0.246;2022-08-19T01:37:22;100817.38;;;20.91;58.93
64632;BME280;58358;50.936;0.246;2022-08-19T01:39:47;100817.49;;;21.35;58.00
64632;BME280;58358;50.936;0.246;2022-08-19T01:42:13;100813.17;;;21.61;56.86
64632;BME280;58358;50.936;0.246;2022-08-19T01:44:39;100810.29;;;21.73;56.36
64632;BME280;58358;50.936;0.246;2022-08-19T01:47:05;100805.25;;;21.03;57.37
64632;BME280;58358;50.936;0.246;2022-08-19T01:49:30;100803.56;;;21.91;55.72
64632;BME280;58358;50.936;0.246;2022-08-19T01:51:55;100804.89;;;20.15;60.43
64632;BME280;58358;50.936;0.246;2022-08-19T01:54:22;100807.97;;;20.48;60.17
64632;BME280;58358;50.936;0.246;2022-08-19T01:56:46;100807.11;;;20.58;60.45
64632;BME280;58358;50.936;0.246;2022-08-19T01:59:13;100805.05;;;21.34;58.03
64632;BME280;58358;50.936;0.246;2022-08-19T02:01:37;100809.60;;;21.28;58.05
64632;BME280;58358;50.936;0.246;2022-08-19T02:04:03;100811.40;;;20.81;59.28
64632;BME280;58358;50.936;0.246;2022-08-19T02:06:29;100810.64;;;21.50;57.91
64632;BME280;58358;50.936;0.246;2022-08-19T02:08:54;100811.03;;;21.68;58.04
64632;BME280;58358;50.936;0.246;2022-08-19T02:11:22;100808.62;;;21.26;58.69
64632;BME280;58358;50.936;0.246;2022-08-19T02:13:45;100815.92;;;19.70;62.35
64632;BME280;58358;50.936;0.246;2022-08-19T02:16:11;100818.76;;;19.91;61.84
64632;BME280;58358;50.936;0.246;2022-08-19T02:18:36;100818.06;;;20.13;62.35
64632;BME280;58358;50.936;0.246;2022-08-19T02:21:03;100815.40;;;20.87;60.28
64632;BME280;58358;50.936;0.246;2022-08-19T02:23:28;100814.98;;;20.19;61.22
64632;BME280;58358;50.936;0.246;2022-08-19T02:25:53;100812.14;;;20.77;60.68
64632;BME280;58358;50.936;0.246;2022-08-19T02:28:19;100813.26;;;20.73;60.35
64632;BME280;58358;50.936;0.246;2022-08-19T02:30:46;100809.28;;;20.94;59.96
64632;BME280;58358;50.936;0.246;2022-08-19T02:33:10;100808.70;;;21.24;59.05
64632;BME280;58358;50.936;0.246;2022-08-19T02:35:36;100809.58;;;21.10;59.06
64632;BME280;58358;50.936;0.246;2022-08-19T02:38:02;100814.97;;;21.47;59.02
64632;BME280;58358;50.936;0.246;2022-08-19T02:40:28;100818.32;;;20.43;61.47
64632;BME280;58358;50.936;0.246;2022-08-19T02:42:53;100815.02;;;20.98;59.76
64632;BME280;58358;50.936;0.246;2022-08-19T02:45:19;100818.62;;;20.59;61.91
64632;BME280;58358;50.936;0.246;2022-08-19T02:47:44;100823.23;;;20.00;62.97
64632;BME280;58358;50.936;0.246;2022-08-19T02:50:10;100824.12;;;20.52;60.85
64632;BME280;58358;50.936;0.246;2022-08-19T02:52:36;100828.27;;;20.59;61.98
64632;BME280;58358;50.936;0.246;2022-08-19T02:55:03;100823.95;;;20.26;62.69
64632;BME280;58358;50.936;0.246;2022-08-19T02:57:27;100819.82;;;20.39;62.55
64632;BME280;58358;50.936;0.246;2022-08-19T02:59:52;100819.69;;;20.25;62.73
64632;BME280;58358;50.936;0.246;2022-08-19T03:02:18;100818.49;;;20.44;61.80
64632;BME280;58358;50.936;0.246;2022-08-19T03:04:43;100818.96;;;20.56;62.29
64632;BME280;58358;50.936;0.246;2022-08-19T03:07:12;100820.79;;;19.42;63.97
64632;BME280;58358;50.936;0.246;2022-08-19T03:09:37;100822.18;;;20.22;62.83
64632;BME280;58358;50.936;0.246;2022-08-19T03:12:00;100820.30;;;20.95;61.39
64632;BME280;58358;50.936;0.246;2022-08-19T03:14:26;100822.44;;;20.37;62.37
64632;BME280;58358;50.936;0.246;2022-08-19T03:16:52;100819.90;;;19.65;65.24
64632;BME280;58358;50.936;0.246;2022-08-19T03:19:19;100815.84;;;19.37;66.16
64632;BME280;58358;50.936;0.246;2022-08-19T03:21:43;100813.95;;;19.09;67.04
64632;BME280;58358;50.936;0.246;2022-08-19T03:24:09;100816.48;;;19.62;64.31
64632;BME280;58358;50.936;0.246;2022-08-19T03:26:37;100809.94;;;18.95;67.37
64632;BME280;58358;50.936;0.246;2022-08-19T03:29:02;100810.98;;;18.52;68.57
64632;BME280;58358;50.936;0.246;2022-08-19T03:31:27;100807.61;;;19.54;66.05
64632;BME280;58358;50.936;0.246;2022-08-19T03:33:51;100807.08;;;18.47;68.38
64632;BME280;58358;50.936;0.246;2022-08-19T03:36:19;100804.39;;;19.07;67.17
64632;BME280;58358;50.936;0.246;2022-08-19T03:38:44;100805.90;;;19.12;66.96
64632;BME280;58358;50.936;0.246;2022-08-19T03:41:10;100809.42;;;18.43;68.12
64632;BME280;58358;50.936;0.246;2022-08-19T03:43:34;100809.49;;;18.90;67.75
64632;BME280;58358;50.936;0.246;2022-08-19T03:46:00;100810.94;;;19.73;65.73
64632;BME280;58358;50.936;0.246;2022-08-19T03:48:24;100812.46;;;19.55;65.76
64632;BME280;58358;50.936;0.246;2022-08-19T03:50:50;100812.30;;;19.41;66.32
64632;BME280;58358;50.936;0.246;2022-08-19T03:53:16;100814.54;;;18.17;68.88
64632;BME280;58358;50.936;0.246;2022-08-19T03:55:41;100817.58;;;18.35;69.84
64632;BME280;58358;50.936;0.246;2022-08-19T03:58:07;100820.15;;;17.47;70.89
64632;BME280;58358;50.936;0.246;2022-08-19T04:00:33;100821.28;;;17.11;73.78
64632;BME280;58358;50.936;0.246;2022-08-19T04:02:59;100821.30;;;17.27;73.61
64632;BME280;58358;50.936;0.246;2022-08-19T04:05:26;100821.71;;;17.53;72.05
64632;BME280;58358;50.936;0.246;2022-08-19T04:07:50;100816.43;;;18.03;72.08
64632;BME280;58358;50.936;0.246;2022-08-19T04:10:16;100816.56;;;18.22;70.62
64632;BME280;58358;50.936;0.246;2022-08-19T04:12:41;100815.45;;;18.14;70.81
64632;BME280;58358;50.936;0.246;2022-08-19T04:15:07;100814.76;;;17.05;71.89
64632;BME280;58358;50.936;0.246;2022-08-19T04:17:32;100809.80;;;18.07;70.90
64632;BME280;58358;50.936;0.246;2022-08-19T04:19:58;100812.79;;;18.18;71.09
64632;BME280;58358;50.936;0.246;2022-08-19T04:22:23;100811.47;;;17.86;72.22
64632;BME280;58358;50.936;0.246;2022-08-19T04:24:49;100812.20;;;18.28;70.76
64632;BME280;58358;50.936;0.246;2022-08-19T04:27:15;100815.13;;;18.13;69.61
64632;BME280;58358;50.936;0.246;2022-08-19T04:29:40;100813.08;;;18.19;71.29
64632;BME280;58358;50.936;0.246;2022-08-19T04:32:06;100810.95;;;17.66;70.60
64632;BME280;58358;50.936;0.246;2022-08-19T04:34:32;100811.83;;;18.74;68.40
64632;BME280;58358;50.936;0.246;2022-08-19T04:36:58;100818.74;;;18.45;68.96
64632;BME280;58358;50.936;0.246;2022-08-19T04:39:26;100822.65;;;18.21;69.44
64632;BME280;58358;50.936;0.246;2022-08-19T04:41:50;100826.79;;;17.50;71.95
64632;BME280;58358;50.936;0.246;2022-08-19T04:44:14;100824.78;;;18.95;67.67
64632;BME280;58358;50.936;0.246;2022-08-19T04:46:40;100821.75;;;18.36;70.25
64632;BME280;58358;50.936;0.246;2022-08-19T04:49:07;100820.56;;;18.65;68.09
64632;BME280;58358;50.936;0.246;2022-08-19T04:51:32;100820.85;;;19.45;66.56
64632;BME280;58358;50.936;0.246;2022-08-19T04:53:57;100820.03;;;18.63;68.47
64632;BME280;58358;50.936;0.246;2022-08-19T04:56:23;100821.07;;;17.01;73.33
64632;BME280;58358;50.936;0.246;2022-08-19T04:58:49;100823.17;;;18.56;68.59
64632;BME280;58358;50.936;0.246;2022-08-19T05:01:17;100823.46;;;17.85;70.26
64632;BME280;58358;50.936;0.246;2022-08-19T05:03:39;100824.95;;;18.77;68.54
64632;BME280;58358;50.936;0.246;2022-08-19T05:06:07;100823.22;;;19.16;66.13
64632;BME280;58358;50.936;0.246;2022-08-19T05:08:30;100823.41;;;18.91;67.95
64632;BME280;58358;50.936;0.246;2022-08-19T05:10:56;100829.29;;;20.27;65.16
64632;BME280;58358;50.936;0.246;2022-08-19T05:13:22;100828.39;;;18.97;66.48
64632;BME280;58358;50.936;0.246;2022-08-19T05:15:54;100831.81;;;19.21;67.35
64632;BME280;58358;50.936;0.246;2022-08-19T05:18:13;100838.18;;;19.24;65.98
64632;BME280;58358;50.936;0.246;2022-08-19T05:20:39;100838.68;;;19.46;66.81
64632;BME280;58358;50.936;0.246;2022-08-19T05:23:05;100839.83;;;19.16;66.59
64632;BME280;58358;50.936;0.246;2022-08-19T05:25:30;100842.65;;;19.40;65.86
64632;BME280;58358;50.936;0.246;2022-08-19T05:27:55;100847.28;;;20.35;64.46
64632;BME280;58358;50.936;0.246;2022-08-19T05:30:21;100845.26;;;19.72;66.09
64632;BME280;58358;50.936;0.246;2022-08-19T05:32:47;100851.13;;;20.16;64.75
64632;BME280;58358;50.936;0.246;2022-08-19T05:35:14;100857.36;;;20.55;63.73
64632;BME280;58358;50.936;0.246;2022-08-19T05:37:38;100856.40;;;20.67;61.89
64632;BME280;58358;50.936;0.246;2022-08-19T05:40:05;100861.03;;;19.52;64.94
64632;BME280;58358;50.936;0.246;2022-08-19T05:42:29;100861.62;;;19.65;64.78
64632;BME280;58358;50.936;0.246;2022-08-19T05:44:55;100861.78;;;20.91;62.44
64632;BME280;58358;50.936;0.246;2022-08-19T05:47:22;100861.33;;;20.83;61.55
64632;BME280;58358;50.936;0.246;2022-08-19T05:49:47;100855.02;;;19.57;65.23
64632;BME280;58358;50.936;0.246;2022-08-19T05:52:13;100855.24;;;20.27;63.58
64632;BME280;58358;50.936;0.246;2022-08-19T05:54:38;100853.80;;;20.93;61.64
64632;BME280;58358;50.936;0.246;2022-08-19T05:57:04;100850.97;;;20.82;61.26
64632;BME280;58358;50.936;0.246;2022-08-19T05:59:30;100850.81;;;20.02;64.52
64632;BME280;58358;50.936;0.246;2022-08-19T06:01:55;100848.75;;;19.02;66.48
64632;BME280;58358;50.936;0.246;2022-08-19T06:04:22;100854.53;;;19.76;63.79
64632;BME280;58358;50.936;0.246;2022-08-19T06:06:46;100850.91;;;20.95;61.15
64632;BME280;58358;50.936;0.246;2022-08-19T06:09:11;100851.71;;;19.33;64.96
64632;BME280;58358;50.936;0.246;2022-08-19T06:11:39;100857.04;;;20.60;62.09
64632;BME280;58358;50.936;0.246;2022-08-19T06:14:05;100854.27;;;20.80;61.48
64632;BME280;58358;50.936;0.246;2022-08-19T06:16:28;100855.02;;;20.00;63.55
64632;BME280;58358;50.936;0.246;2022-08-19T06:18:55;100855.23;;;20.18;63.38
64632;BME280;58358;50.936;0.246;2022-08-19T06:21:20;100859.87;;;20.24;62.64
64632;BME280;58358;50.936;0.246;2022-08-19T06:23:45;100861.08;;;19.88;64.15
64632;BME280;58358;50.936;0.246;2022-08-19T06:26:12;100862.21;;;19.77;64.80
64632;BME280;58358;50.936;0.246;2022-08-19T06:28:36;100857.42;;;19.97;64.39
64632;BME280;58358;50.936;0.246;2022-08-19T06:31:07;100859.04;;;20.39;64.31
64632;BME280;58358;50.936;0.246;2022-08-19T06:33:28;100857.77;;;19.00;66.84
64632;BME280;58358;50.936;0.246;2022-08-19T06:35:53;100856.55;;;19.33;66.98
64632;BME280;58358;50.936;0.246;2022-08-19T06:38:18;100857.90;;;20.21;64.04
64632;BME280;58358;50.936;0.246;2022-08-19T06:40:44;100855.71;;;19.04;67.76
64632;BME280;58358;50.936;0.246;2022-08-19T06:43:10;100857.87;;;19.50;66.32
64632;BME280;58358;50.936;0.246;2022-08-19T06:45:36;100860.18;;;20.18;65.17
64632;BME280;58358;50.936;0.246;2022-08-19T06:48:02;100860.06;;;20.33;63.02
64632;BME280;58358;50.936;0.246;2022-08-19T06:50:27;100858.64;;;18.79;66.07
64632;BME280;58358;50.936;0.246;2022-08-19T06:52:52;100867.83;;;20.20;64.46
64632;BME280;58358;50.936;0.246;2022-08-19T06:55:17;100868.59;;;19.82;64.62
64632;BME280;58358;50.936;0.246;2022-08-19T06:57:48;100871.79;;;19.17;66.78
64632;BME280;58358;50.936;0.246;2022-08-19T07:00:09;100877.87;;;19.93;64.65
64632;BME280;58358;50.936;0.246;2022-08-19T07:02:34;100879.07;;;20.67;62.58
64632;BME280;58358;50.936;0.246;2022-08-19T07:05:00;100875.11;;;20.71;63.09
64632;BME280;58358;50.936;0.246;2022-08-19T07:07:25;100875.95;;;20.35;63.20
64632;BME280;58358;50.936;0.246;2022-08-19T07:09:51;100886.88;;;20.99;62.83
64632;BME280;58358;50.936;0.246;2022-08-19T07:12:16;100881.72;;;19.30;65.66
64632;BME280;58358;50.936;0.246;2022-08-19T07:14:43;100879.77;;;19.87;65.42
64632;BME280;58358;50.936;0.246;2022-08-19T07:17:10;100886.77;;;20.15;63.34
64632;BME280;58358;50.936;0.246;2022-08-19T07:19:33;100880.16;;;19.77;64.37
64632;BME280;58358;50.936;0.246;2022-08-19T07:22:00;100884.32;;;21.65;60.11
64632;BME280;58358;50.936;0.246;2022-08-19T07:24:25;100889.15;;;21.24;60.45
64632;BME280;58358;50.936;0.246;2022-08-19T07:26:51;100890.83;;;20.14;63.70
64632;BME280;58358;50.936;0.246;2022-08-19T07:29:15;100889.76;;;21.41;59.41
64632;BME280;58358;50.936;0.246;2022-08-19T07:31:41;100884.14;;;21.81;58.51
64632;BME280;58358;50.936;0.246;2022-08-19T07:34:09;100890.18;;;19.79;64.78
64632;BME280;58358;50.936;0.246;2022-08-19T07:36:33;100892.27;;;20.43;62.99
64632;BME280;58358;50.936;0.246;2022-08-19T07:39:00;100890.51;;;21.26;61.09
64632;BME280;58358;50.936;0.246;2022-08-19T07:41:25;100889.27;;;21.81;59.56
64632;BME280;58358;50.936;0.246;2022-08-19T07:43:49;100886.13;;;21.61;59.20
64632;BME280;58358;50.936;0.246;2022-08-19T07:46:15;100882.16;;;21.15;59.36
64632;BME280;58358;50.936;0.246;2022-08-19T07:48:41;100883.91;;;21.17;60.23
64632;BME280;58358;50.936;0.246;2022-08-19T07:51:07;100885.67;;;20.07;61.51
64632;BME280;58358;50.936;0.246;2022-08-19T07:53:33;100882.78;;;20.12;61.58
64632;BME280;58358;50.936;0.246;2022-08-19T07:55:57;100885.62;;;20.03;62.84
64632;BME280;58358;50.936;0.246;2022-08-19T07:58:22;100893.88;;;20.52;61.20
64632;BME280;58358;50.936;0.246;2022-08-19T08:00:50;100896.05;;;20.86;60.68
64632;BME280;58358;50.936;0.246;2022-08-19T08:03:14;100896.08;;;20.91;60.46
64632;BME280;58358;50.936;0.246;2022-08-19T08:05:39;100901.73;;;20.87;60.53
64632;BME280;58358;50.936;0.246;2022-08-19T08:08:05;100905.39;;;20.24;61.50
64632;BME280;58358;50.936;0.246;2022-08-19T08:10:30;100904.93;;;21.85;57.86
64632;BME280;58358;50.936;0.246;2022-08-19T08:12:56;100909.83;;;21.05;59.56
64632;BME280;58358;50.936;0.246;2022-08-19T08:15:21;100913.31;;;20.61;60.76
64632;BME280;58358;50.936;0.246;2022-08-19T08:17:47;100912.73;;;20.67;62.43
64632;BME280;58358;50.936;0.246;2022-08-19T08:20:13;100909.18;;;21.42;60.34
64632;BME280;58358;50.936;0.246;2022-08-19T08:22:43;100912.12;;;21.70;59.50
64632;BME280;58358;50.936;0.246;2022-08-19T08:25:06;100910.15;;;20.52;59.33
64632;BME280;58358;50.936;0.246;2022-08-19T08:27:36;100907.62;;;22.02;58.17
64632;BME280;58358;50.936;0.246;2022-08-19T08:29:55;100907.24;;;22.30;56.09
64632;BME280;58358;50.936;0.246;2022-08-19T08:32:21;100899.97;;;22.91;54.87
64632;BME280;58358;50.936;0.246;2022-08-19T08:34:46;100902.47;;;23.42;54.18
64632;BME280;58358;50.936;0.246;2022-08-19T08:37:12;100897.50;;;22.74;55.15
64632;BME280;58358;50.936;0.246;2022-08-19T08:39:37;100897.00;;;23.37;52.66
64632;BME280;58358;50.936;0.246;2022-08-19T08:42:08;100901.74;;;22.83;55.71
64632;BME280;58358;50.936;0.246;2022-08-19T08:44:38;100902.55;;;22.75;54.67
64632;BME280;58358;50.936;0.246;2022-08-19T08:46:59;100906.07;;;23.47;53.74
64632;BME280;58358;50.936;0.246;2022-08-19T08:49:29;100909.45;;;21.61;57.10
64632;BME280;58358;50.936;0.246;2022-08-19T08:51:50;100907.09;;;22.60;54.01
64632;BME280;58358;50.936;0.246;2022-08-19T08:54:13;100908.83;;;22.03;53.90
64632;BME280;58358;50.936;0.246;2022-08-19T08:56:38;100902.87;;;22.25;55.33
64632;BME280;58358;50.936;0.246;2022-08-19T08:59:07;100899.05;;;22.63;53.78
64632;BME280;58358;50.936;0.246;2022-08-19T09:01:27;100898.31;;;22.97;53.38
64632;BME280;58358;50.936;0.246;2022-08-19T09:03:52;100896.70;;;23.69;51.42
64632;BME280;58358;50.936;0.246;2022-08-19T09:06:24;100899.05;;;21.31;55.04
64632;BME280;58358;50.936;0.246;2022-08-19T09:08:50;100903.31;;;20.76;57.34
64632;BME280;58358;50.936;0.246;2022-08-19T09:11:15;100900.61;;;22.05;54.39
64632;BME280;58358;50.936;0.246;2022-08-19T09:13:42;100903.28;;;22.15;54.97
64632;BME280;58358;50.936;0.246;2022-08-19T09:16:06;100903.88;;;22.44;53.94
64632;BME280;58358;50.936;0.246;2022-08-19T09:20:52;100901.46;;;22.58;53.33
64632;BME280;58358;50.936;0.246;2022-08-19T09:23:17;100904.76;;;23.03;52.18
64632;BME280;58358;50.936;0.246;2022-08-19T09:25:43;100902.55;;;22.09;53.47
64632;BME280;58358;50.936;0.246;2022-08-19T09:28:08;100903.47;;;21.76;54.19
64632;BME280;58358;50.936;0.246;2022-08-19T09:30:40;100903.06;;;22.79;53.21
64632;BME280;58358;50.936;0.246;2022-08-19T09:33:00;100900.65;;;23.37;51.16
64632;BME280;58358;50.936;0.246;2022-08-19T09:35:27;100903.42;;;23.26;51.81
64632;BME280;58358;50.936;0.246;2022-08-19T09:37:51;100900.89;;;21.83;54.68
64632;BME280;58358;50.936;0.246;2022-08-19T09:40:17;100900.21;;;21.99;54.14
64632;BME280;58358;50.936;0.246;2022-08-19T09:42:42;100901.63;;;23.07;52.07
64632;BME280;58358;50.936;0.246;2022-08-19T09:45:08;100901.61;;;22.48;52.41
64632;BME280;58358;50.936;0.246;2022-08-19T09:47:33;100897.66;;;23.63;50.32
64632;BME280;58358;50.936;0.246;2022-08-19T09:49:58;100895.38;;;23.80;50.23
64632;BME280;58358;50.936;0.246;2022-08-19T09:52:27;100902.97;;;22.79;51.42
64632;BME280;58358;50.936;0.246;2022-08-19T09:54:52;100906.26;;;21.88;53.78
64632;BME280;58358;50.936;0.246;2022-08-19T09:57:18;100912.33;;;21.12;56.60
64632;BME280;58358;50.936;0.246;2022-08-19T09:59:41;100914.17;;;21.25;58.92
64632;BME280;58358;50.936;0.246;2022-08-19T10:02:06;100911.45;;;20.86;60.29
64632;BME280;58358;50.936;0.246;2022-08-19T10:04:32;100913.54;;;20.03;62.95
64632;BME280;58358;50.936;0.246;2022-08-19T10:06:58;100916.10;;;17.80;70.42
64632;BME280;58358;50.936;0.246;2022-08-19T10:09:23;100917.05;;;19.39;67.34
64632;BME280;58358;50.936;0.246;2022-08-19T10:11:48;100912.73;;;19.42;66.45
64632;BME280;58358;50.936;0.246;2022-08-19T10:14:14;100916.36;;;19.98;65.46
64632;BME280;58358;50.936;0.246;2022-08-19T10:16:39;100917.89;;;19.75;67.46
64632;BME280;58358;50.936;0.246;2022-08-19T10:19:05;100918.26;;;20.08;64.48
64632;BME280;58358;50.936;0.246;2022-08-19T10:21:32;100913.57;;;19.46;67.27
64632;BME280;58358;50.936;0.246;2022-08-19T10:23:59;100916.42;;;19.68;66.43
64632;BME280;58358;50.936;0.246;2022-08-19T10:26:25;100920.34;;;20.82;63.27
64632;BME280;58358;50.936;0.246;2022-08-19T10:28:48;100917.35;;;20.93;62.01
64632;BME280;58358;50.936;0.246;2022-08-19T10:31:16;100915.53;;;20.29;62.82
64632;BME280;58358;50.936;0.246;2022-08-19T10:33:40;100912.84;;;20.86;63.27
64632;BME280;58358;50.936;0.246;2022-08-19T10:36:07;100911.53;;;20.84;63.24
64632;BME280;58358;50.936;0.246;2022-08-19T10:38:30;100908.57;;;20.50;62.60
64632;BME280;58358;50.936;0.246;2022-08-19T10:40:55;100916.69;;;20.61;62.65
64632;BME280;58358;50.936;0.246;2022-08-19T10:43:23;100918.14;;;20.19;62.96
64632;BME280;58358;50.936;0.246;2022-08-19T10:45:52;100920.15;;;20.75;61.48
64632;BME280;58358;50.936;0.246;2022-08-19T10:48:12;100923.49;;;20.90;61.84
64632;BME280;58358;50.936;0.246;2022-08-19T10:50:38;100920.46;;;22.02;60.11
64632;BME280;58358;50.936;0.246;2022-08-19T10:53:06;100919.64;;;21.62;58.84
64632;BME280;58358;50.936;0.246;2022-08-19T10:55:29;100919.59;;;21.53;59.04
64632;BME280;58358;50.936;0.246;2022-08-19T10:57:54;100922.35;;;21.15;58.25
64632;BME280;58358;50.936;0.246;2022-08-19T11:00:20;100913.79;;;20.69;60.35
64632;BME280;58358;50.936;0.246;2022-08-19T11:02:46;100919.18;;;21.36;58.56
64632;BME280;58358;50.936;0.246;2022-08-19T11:05:13;100919.10;;;20.16;61.10
64632;BME280;58358;50.936;0.246;2022-08-19T11:07:37;100923.39;;;20.76;59.88
64632;BME280;58358;50.936;0.246;2022-08-19T11:10:04;100924.02;;;21.38;58.63
64632;BME280;58358;50.936;0.246;2022-08-19T11:12:28;100925.14;;;21.22;57.69
64632;BME280;58358;50.936;0.246;2022-08-19T11:14:54;100919.50;;;20.53;60.04
64632;BME280;58358;50.936;0.246;2022-08-19T11:17:19;100921.86;;;18.75;65.01
64632;BME280;58358;50.936;0.246;2022-08-19T11:19:45;100925.73;;;19.46;63.56
64632;BME280;58358;50.936;0.246;2022-08-19T11:22:10;100923.73;;;18.76;64.24
64632;BME280;58358;50.936;0.246;2022-08-19T11:24:36;100919.62;;;20.49;60.95
64632;BME280;58358;50.936;0.246;2022-08-19T11:27:04;100920.27;;;20.77;60.38
64632;BME280;58358;50.936;0.246;2022-08-19T11:29:27;100917.25;;;20.33;62.61
64632;BME280;58358;50.936;0.246;2022-08-19T11:31:53;100924.50;;;20.76;59.77
64632;BME280;58358;50.936;0.246;2022-08-19T11:34:20;100926.62;;;21.14;58.43
64632;BME280;58358;50.936;0.246;2022-08-19T11:36:46;100925.82;;;21.65;57.65
64632;BME280;58358;50.936;0.246;2022-08-19T11:39:11;100924.94;;;21.06;58.01
64632;BME280;58358;50.936;0.246;2022-08-19T11:41:36;100929.28;;;20.55;59.08
64632;BME280;58358;50.936;0.246;2022-08-19T11:44:02;100933.00;;;20.85;59.06
64632;BME280;58358;50.936;0.246;2022-08-19T11:46:29;100933.32;;;20.15;59.94
64632;BME280;58358;50.936;0.246;2022-08-19T11:48:52;100939.15;;;21.07;58.44
64632;BME280;58358;50.936;0.246;2022-08-19T11:51:20;100934.82;;;21.66;56.95
64632;BME280;58358;50.936;0.246;2022-08-19T11:53:43;100936.15;;;20.69;57.72
64632;BME280;58358;50.936;0.246;2022-08-19T11:56:09;100936.25;;;19.94;60.10
64632;BME280;58358;50.936;0.246;2022-08-19T11:58:35;100942.76;;;18.90;65.12
64632;BME280;58358;50.936;0.246;2022-08-19T12:01:00;100940.92;;;20.16;64.95
64632;BME280;58358;50.936;0.246;2022-08-19T12:03:26;100945.57;;;19.76;64.38
64632;BME280;58358;50.936;0.246;2022-08-19T12:05:52;100944.85;;;19.76;64.05
64632;BME280;58358;50.936;0.246;2022-08-19T12:08:18;100944.67;;;20.45;62.02
64632;BME280;58358;50.936;0.246;2022-08-19T12:10:43;100940.40;;;20.65;62.46
64632;BME280;58358;50.936;0.246;2022-08-19T12:13:08;100935.92;;;19.95;64.73
64632;BME280;58358;50.936;0.246;2022-08-19T12:15:35;100942.73;;;19.76;66.49
64632;BME280;58358;50.936;0.246;2022-08-19T12:17:59;100931.78;;;19.94;65.36
64632;BME280;58358;50.936;0.246;2022-08-19T12:20:25;100937.57;;;21.17;62.69
64632;BME280;58358;50.936;0.246;2022-08-19T12:22:51;100939.62;;;19.75;64.32
64632;BME280;58358;50.936;0.246;2022-08-19T12:25:16;100954.05;;;19.08;67.08
64632;BME280;58358;50.936;0.246;2022-08-19T12:27:42;100962.75;;;17.56;71.24
64632;BME280;58358;50.936;0.246;2022-08-19T12:30:10;100958.84;;;17.33;69.12
64632;BME280;58358;50.936;0.246;2022-08-19T12:32:34;100960.06;;;18.48;66.38
64632;BME280;58358;50.936;0.246;2022-08-19T12:34:59;100959.72;;;17.94;68.32
64632;BME280;58358;50.936;0.246;2022-08-19T12:37:24;100959.90;;;18.54;67.20
64632;BME280;58358;50.936;0.246;2022-08-19T12:39:50;100965.47;;;17.18;70.05
64632;BME280;58358;50.936;0.246;2022-08-19T12:42:15;100963.33;;;18.36;67.80